Sunmi — C6WS3 — position and weather

sailwx.info

Track history (hours):
 
Tides and Currents Weather Stations Pressure Air Temp Water Temp Dewpoint Dewpoint Depression Visibility Wind Speed Wind Dir Waves Ship Positions

Sunmi

Last reported at 2017-Nov-20 00:30 UTC. Time now 2017-Nov-22 09:19 UTC.
Position N 52°46' E 001°42'.

Length 90 m; draft 3.9 m.

Type: Ship. MMSI: 309937000.

Date/timePositionNaut miles runAvg speedWind from/ knotsBaromVisibWave heightAir tempDewpointWater temp
2017-Nov-20 00:30N 52°46' E 001°42'612.1
2017-Nov-20 00:00N 52°41' E 001°48'510.6
2017-Nov-19 23:30N 52°37' E 001°53'510.2
2017-Nov-19 23:00N 52°31' E 001°52'5 9.5
2017-Nov-19 22:30N 52°27' E 001°52'5 9.2
2017-Nov-19 22:01N 52°22' E 001°51'11 9.0
2017-Nov-19 20:50N 52°12' E 001°50'3 8.5
2017-Nov-19 20:30N 52°09' E 001°50'4 8.3
2017-Nov-19 20:00N 52°05' E 001°49'4 8.4
2017-Nov-19 19:30N 52°01' E 001°49'5 9.4
2017-Nov-19 19:00N 51°56' E 001°48'510.1
2017-Nov-19 18:31N 51°51' E 001°48'510.5
2017-Nov-19 18:00N 51°46' E 001°48'510.8
2017-Nov-19 17:30N 51°40' E 001°48'510.6
2017-Nov-19 17:01N 51°36' E 001°44'611.4
2017-Nov-19 16:30N 51°31' E 001°39'510.7
2017-Nov-19 16:00N 51°27' E 001°33'4 7.6
2017-Nov-19 15:30N 51°27' E 001°27'713.0
2017-Nov-19 15:00N 51°29' E 001°16'613.1
2017-Nov-19 14:31N 51°29' E 001°06'612.3
2017-Nov-19 14:00N 51°29' E 000°56'611.7
2017-Nov-19 13:30N 51°29' E 000°47'511.0
2017-Nov-19 13:00N 51°30' E 000°38'510.0
2017-Nov-19 12:30N 51°30' E 000°30'5 9.0
2017-Nov-19 12:00N 51°27' E 000°24'3 0.3
2017-Nov-19 01:30N 51°27' E 000°20'0 0.0
2017-Nov-19 01:00N 51°27' E 000°20'0 0.0
2017-Nov-19 00:30N 51°27' E 000°20'0 0.0
2017-Nov-19 00:00N 51°27' E 000°20'0 0.0
2017-Nov-18 23:31N 51°27' E 000°20'0 0.0
2017-Nov-18 23:01N 51°27' E 000°20'0 0.0
2017-Nov-18 22:30N 51°27' E 000°20'0 0.0
2017-Nov-18 22:00N 51°27' E 000°20'0 0.0
2017-Nov-18 21:30N 51°27' E 000°20'0 0.0
2017-Nov-18 21:01N 51°27' E 000°20'0 0.0
2017-Nov-18 20:30N 51°27' E 000°20'0 0.0
2017-Nov-18 20:00N 51°27' E 000°20'0 0.0
2017-Nov-18 19:30N 51°27' E 000°20'0 0.0
2017-Nov-18 19:00N 51°27' E 000°20'0 0.0
2017-Nov-18 18:30N 51°27' E 000°20'0 0.0
2017-Nov-18 18:00N 51°27' E 000°20'0 0.0
2017-Nov-18 17:30N 51°27' E 000°20'0 0.0
2017-Nov-18 17:00N 51°27' E 000°20'0 0.0
2017-Nov-18 16:30N 51°27' E 000°20'0 0.0
2017-Nov-18 16:00N 51°27' E 000°20'0 0.0
2017-Nov-18 15:31N 51°27' E 000°20'0 0.0
2017-Nov-18 15:00N 51°27' E 000°20'0 0.0
2017-Nov-18 14:30N 51°27' E 000°20'0 0.0
2017-Nov-18 14:00N 51°27' E 000°20'0 0.0
2017-Nov-18 13:01N 51°27' E 000°20'0 0.0
2017-Nov-18 13:00N 51°27' E 000°20'0 0.0
2017-Nov-18 12:30N 51°27' E 000°20'0 0.0
2017-Nov-18 12:01N 51°27' E 000°20'0 0.0
2017-Nov-18 11:31N 51°27' E 000°20'0 0.0
2017-Nov-18 11:00N 51°27' E 000°20'0 0.0
2017-Nov-18 10:30N 51°27' E 000°20'0 0.0
2017-Nov-18 10:00N 51°27' E 000°20'0 0.0
2017-Nov-18 09:30N 51°27' E 000°20'0 0.0
2017-Nov-18 09:01N 51°27' E 000°20'0 0.0
2017-Nov-18 08:30N 51°27' E 000°20'0 0.0
2017-Nov-18 08:01N 51°27' E 000°20'0 0.0
2017-Nov-18 07:31N 51°27' E 000°20'0 0.0
2017-Nov-18 07:00N 51°27' E 000°20'0 0.0
2017-Nov-18 06:30N 51°27' E 000°20'0 0.0
2017-Nov-18 06:00N 51°27' E 000°20'0 0.0
2017-Nov-18 05:30N 51°27' E 000°20'0 0.0
2017-Nov-18 05:00N 51°27' E 000°20'0 0.0
2017-Nov-18 04:30N 51°27' E 000°20'0 0.0
2017-Nov-18 04:00N 51°27' E 000°20'0 0.0
2017-Nov-18 03:30N 51°27' E 000°20'0 0.0
2017-Nov-18 03:00N 51°27' E 000°20'0 0.0
2017-Nov-18 02:30N 51°27' E 000°20'0 0.0
2017-Nov-18 02:01N 51°27' E 000°20'0 0.0
2017-Nov-18 01:31N 51°27' E 000°20'0 0.0
2017-Nov-18 01:00N 51°27' E 000°20'0 0.0
2017-Nov-18 00:31N 51°27' E 000°20'0 0.0
2017-Nov-18 00:00N 51°27' E 000°20'0 0.0
2017-Nov-17 23:31N 51°27' E 000°20'0 0.0
2017-Nov-17 23:01N 51°27' E 000°20'0 0.0
2017-Nov-17 22:30N 51°27' E 000°20'0 0.0
2017-Nov-17 22:00N 51°27' E 000°20'0 0.0
2017-Nov-17 21:30N 51°27' E 000°20'0 0.0
2017-Nov-17 21:00N 51°27' E 000°20'0 0.0
2017-Nov-17 20:30N 51°27' E 000°20'0 0.0
2017-Nov-17 20:00N 51°27' E 000°20'0 0.0
2017-Nov-17 19:30N 51°27' E 000°20'0 0.0
2017-Nov-17 19:00N 51°27' E 000°20'0 0.0
2017-Nov-17 18:30N 51°27' E 000°20'0 0.0
2017-Nov-17 18:00N 51°27' E 000°20'0 0.0
2017-Nov-17 17:31N 51°27' E 000°20'0 0.0
2017-Nov-17 17:00N 51°27' E 000°20'0 0.0
2017-Nov-17 16:30N 51°27' E 000°20'0 0.0
2017-Nov-17 16:01N 51°27' E 000°20'0 0.0
2017-Nov-17 15:30N 51°27' E 000°20'0 0.0
2017-Nov-17 15:00N 51°27' E 000°20'0 0.0
2017-Nov-17 14:30N 51°27' E 000°20'0 0.0
2017-Nov-17 13:52N 51°27' E 000°20'0 0.0
2017-Nov-17 13:31N 51°27' E 000°20'0 0.0
2017-Nov-17 13:01N 51°27' E 000°20'0 0.0
2017-Nov-17 12:31N 51°27' E 000°20'0 0.0
2017-Nov-17 12:00N 51°27' E 000°20'0 0.0
2017-Nov-17 11:31N 51°27' E 000°20'0 0.0
2017-Nov-17 11:01N 51°27' E 000°20'0 0.1
2017-Nov-17 10:30N 51°27' E 000°20'1 1.0
2017-Nov-17 10:01N 51°27' E 000°20'4 7.3
2017-Nov-17 09:31N 51°27' E 000°26'510.4
2017-Nov-17 09:01N 51°30' E 000°32'611.4
2017-Nov-17 08:30N 51°30' E 000°41'611.7
2017-Nov-17 07:59N 51°30' E 000°51'511.1
2017-Nov-17 07:30N 51°30' E 000°60'510.8
2017-Nov-17 07:00N 51°29' E 001°09'611.0
2017-Nov-17 06:30N 51°29' E 001°17'510.0
2017-Nov-17 06:01N 51°28' E 001°25'4 7.7
2017-Nov-17 05:30N 51°25' E 001°29'3 6.8
2017-Nov-17 05:01N 51°23' E 001°33'3 6.8
2017-Nov-17 04:31N 51°20' E 001°36'3 6.5
2017-Nov-17 04:00N 51°17' E 001°38'3 6.5
2017-Nov-17 03:30N 51°14' E 001°40'3 6.7
2017-Nov-17 03:00N 51°11' E 001°42'3 6.0
2017-Nov-17 02:30N 51°08' E 001°41'3 7.0
2017-Nov-17 02:01N 51°05' E 001°38'3 6.8
2017-Nov-17 01:30N 51°02' E 001°36'3 6.9
2017-Nov-17 01:00N 50°59' E 001°33'3 6.9
2017-Nov-17 00:30N 50°56' E 001°30'4 7.1
2017-Nov-16 23:58N 50°53' E 001°27'5810.4
2017-Nov-16 18:27N 50°22' E 000°10'512.2
2017-Nov-16 18:00N 50°21' E 000°02'611.8
2017-Nov-16 17:30N 50°19' W 000°07'611.5
2017-Nov-16 17:00N 50°17' W 000°16'45 9.0
2017-Nov-16 12:00N 50°05' W 001°23'4 7.8
2017-Nov-16 11:30N 50°03' W 001°29'4 8.2
2017-Nov-16 11:00N 50°02' W 001°35'4 8.8
2017-Nov-16 10:31N 50°01' W 001°41'5 9.5
2017-Nov-16 10:00N 49°60' W 001°48'510.3
2017-Nov-16 09:31N 49°58' W 001°56'611.0
2017-Nov-16 09:00N 49°56' W 002°04'611.8
2017-Nov-16 08:30N 49°55' W 002°13'612.1
2017-Nov-16 08:00N 49°53' W 002°22'612.3
2017-Nov-16 07:30N 49°52' W 002°31'1012.3
2017-Nov-16 06:41N 49°49' W 002°47'712.1
2017-Nov-16 06:06N 49°46' W 002°56'112.0
2017-Nov-16 05:59N 49°46' W 002°58'712.2
2017-Nov-16 05:27N 49°42' W 003°07'712.2
2017-Nov-16 04:54N 49°38' W 003°15'612.1
2017-Nov-16 04:26N 49°35' W 003°22'512.0
2017-Nov-16 04:01N 49°33' W 003°29'2611.8
2017-Nov-16 01:48N 49°19' W 004°04'1511.2
2017-Nov-16 00:27N 49°12' W 004°24'710.4
2017-Nov-15 23:44N 49°09' W 004°34'310.7
2017-Nov-15 23:29N 49°08' W 004°38'910.3
2017-Nov-15 22:36N 49°03' W 004°50'2 9.8
2017-Nov-15 22:26N 49°02' W 004°52'5 9.7
2017-Nov-15 21:56N 48°60' W 004°58'4 9.5
2017-Nov-15 21:28N 48°57' W 005°04'6 9.1
2017-Nov-15 20:47N 48°54' W 005°13'5 8.9
2017-Nov-15 20:13N 48°52' W 005°19'2 8.9
2017-Nov-15 19:57N 48°51' W 005°22'4 8.9
2017-Nov-15 19:30N 48°49' W 005°28'5 8.9
2017-Nov-15 18:55N 48°46' W 005°34'4 8.9
2017-Nov-15 18:30N 48°43' W 005°38'5 9.4
2017-Nov-15 18:00N 48°39' W 005°41'17 9.1
2017-Nov-15 16:09N 48°22' W 005°37'2 9.7
2017-Nov-15 15:58N 48°21' W 005°36'510.1
2017-Nov-15 15:31N 48°16' W 005°34'610.3
2017-Nov-15 14:58N 48°11' W 005°31'510.4
2017-Nov-15 14:30N 48°06' W 005°29'510.5
2017-Nov-15 14:00N 48°01' W 005°27'510.6
2017-Nov-15 13:30N 47°57' W 005°23'611.0
2017-Nov-15 12:56N 47°51' W 005°20'510.7
2017-Nov-15 12:30N 47°46' W 005°17'610.9
2017-Nov-15 11:56N 47°40' W 005°14'510.7
2017-Nov-15 11:30N 47°36' W 005°12'610.9
2017-Nov-15 10:57N 47°31' W 005°09'4910.8
2017-Nov-15 06:25N 46°44' W 004°45'17810.4
2017-Nov-14 13:15N 43°57' W 003°21'310.6
2017-Nov-14 13:00N 43°54' W 003°20'510.5
2017-Nov-14 12:30N 43°49' W 003°18'510.4
2017-Nov-14 12:00N 43°44' W 003°15'510.4
2017-Nov-14 11:30N 43°39' W 003°13'510.4
2017-Nov-14 11:00N 43°34' W 003°11'510.4
2017-Nov-14 10:30N 43°30' W 003°08'510.3
2017-Nov-14 10:00N 43°25' W 003°06'4 8.1
2017-Nov-14 09:30N 43°21' W 003°02'1 2.5
2017-Nov-14 09:00N 43°20' W 003°02'0 0.0
2017-Nov-14 08:30N 43°20' W 003°02'0 0.0
2017-Nov-14 08:00N 43°20' W 003°02'0 0.0
2017-Nov-14 07:30N 43°20' W 003°02'0 0.0
2017-Nov-14 07:00N 43°20' W 003°02'0 0.0
2017-Nov-14 06:30N 43°20' W 003°02'0 0.0
2017-Nov-14 06:00N 43°20' W 003°02'0 0.0
2017-Nov-14 05:30N 43°20' W 003°02'0 0.0
2017-Nov-14 05:00N 43°20' W 003°02'0 0.0
2017-Nov-14 04:30N 43°20' W 003°02'0 0.0
2017-Nov-14 04:00N 43°20' W 003°02'0 0.0
2017-Nov-14 03:30N 43°20' W 003°02'0 0.0
2017-Nov-14 03:00N 43°20' W 003°02'0 0.0
2017-Nov-14 02:30N 43°20' W 003°02'0 0.0
2017-Nov-14 02:00N 43°20' W 003°02'0 0.0
2017-Nov-14 01:30N 43°20' W 003°02'0 0.0
2017-Nov-14 01:00N 43°20' W 003°02'0 0.0
2017-Nov-14 00:30N 43°20' W 003°02'0 0.0
2017-Nov-14 00:00N 43°20' W 003°02'0 0.0
2017-Nov-13 23:30N 43°20' W 003°02'0 0.0
2017-Nov-13 23:00N 43°20' W 003°02'0 0.0
2017-Nov-13 22:30N 43°20' W 003°02'0 0.0
2017-Nov-13 22:00N 43°20' W 003°02'0 0.0
2017-Nov-13 02:00N 43°20' W 003°02'0 0.0
2017-Nov-13 01:30N 43°20' W 003°02'0 0.0
2017-Nov-13 01:00N 43°20' W 003°02'0 0.0
2017-Nov-13 00:30N 43°20' W 003°02'0 0.0
2017-Nov-13 00:00N 43°20' W 003°02'0 0.0
2017-Nov-12 23:30N 43°20' W 003°02'0 0.0
2017-Nov-12 23:00N 43°20' W 003°02'0 0.0
2017-Nov-12 22:30N 43°20' W 003°02'0 0.0
2017-Nov-12 22:00N 43°20' W 003°02'0 0.0
2017-Nov-12 21:30N 43°20' W 003°02'0 0.0
2017-Nov-12 21:00N 43°20' W 003°02'0 0.0
2017-Nov-12 20:27N 43°20' W 003°02'0 0.0
2017-Nov-12 20:00N 43°20' W 003°02'0 0.0
2017-Nov-12 19:30N 43°20' W 003°02'0 0.0
2017-Nov-12 19:00N 43°20' W 003°02'0 0.0
2017-Nov-12 18:30N 43°20' W 003°02'0 0.0
2017-Nov-12 18:00N 43°20' W 003°02'0 0.0
2017-Nov-12 17:30N 43°20' W 003°02'0 0.0
2017-Nov-12 17:00N 43°20' W 003°02'0 0.0
2017-Nov-12 16:30N 43°20' W 003°02'0 0.0
2017-Nov-12 16:00N 43°20' W 003°02'0 0.0
2017-Nov-12 15:30N 43°20' W 003°02'0 0.0
2017-Nov-12 15:00N 43°20' W 003°02'0 0.0
2017-Nov-12 14:30N 43°20' W 003°02'0 0.0
2017-Nov-12 14:00N 43°20' W 003°02'0 0.0
2017-Nov-12 13:30N 43°20' W 003°02'0 0.0
2017-Nov-12 13:00N 43°20' W 003°02'0 0.0
2017-Nov-12 12:30N 43°20' W 003°02'0 0.0
2017-Nov-12 12:00N 43°20' W 003°02'0 0.2
2017-Nov-12 11:31N 43°20' W 003°02'3 7.0
2017-Nov-12 11:01N 43°23' W 003°05'510.6
2017-Nov-12 10:31N 43°28' W 003°08'510.6
2017-Nov-12 10:01N 43°33' W 003°10'510.4
2017-Nov-12 09:31N 43°38' W 003°12'510.2
2017-Nov-12 09:01N 43°43' W 003°14'510.4
2017-Nov-12 08:31N 43°48' W 003°16'510.6
2017-Nov-12 08:01N 43°53' W 003°19'510.8
2017-Nov-12 07:31N 43°58' W 003°21'510.8
2017-Nov-12 07:01N 44°03' W 003°23'17711.0
2017-Nov-11 14:52N 46°50' W 004°48'1 3.2
2017-Nov-11 14:30N 46°49' W 004°46'2 3.3
2017-Nov-11 13:47N 46°48' W 004°43'1 3.2
2017-Nov-11 13:30N 46°48' W 004°42'2 3.5
2017-Nov-11 13:00N 46°47' W 004°40'3 3.8
2017-Nov-11 12:16N 46°50' W 004°39'411.2
2017-Nov-11 11:54N 46°54' W 004°41'3711.1
2017-Nov-11 08:35N 47°29' W 004°56'211.4
2017-Nov-11 08:26N 47°31' W 004°57'510.7
2017-Nov-11 08:01N 47°35' W 004°59'510.8
2017-Nov-11 07:30N 47°40' W 005°02'510.6
2017-Nov-11 07:01N 47°45' W 005°04'510.4
2017-Nov-11 06:30N 47°50' W 005°06'510.1
2017-Nov-11 06:00N 47°55' W 005°09'510.3
2017-Nov-11 05:31N 48°00' W 005°11'510.5
2017-Nov-11 05:00N 48°05' W 005°13'510.7
2017-Nov-11 04:30N 48°10' W 005°15'611.1
2017-Nov-11 04:00N 48°16' W 005°18'611.0
2017-Nov-11 03:30N 48°21' W 005°21'611.3
2017-Nov-11 03:00N 48°26' W 005°23'510.1
2017-Nov-11 02:31N 48°31' W 005°24'5 9.7
2017-Nov-11 02:00N 48°35' W 005°20'5 9.3
2017-Nov-11 01:30N 48°38' W 005°15'4 8.5
2017-Nov-11 01:00N 48°40' W 005°09'4 8.8
2017-Nov-11 00:31N 48°41' W 005°02'4 8.6
2017-Nov-11 00:00N 48°43' W 004°56'4 8.6
2017-Nov-10 23:31N 48°44' W 004°50'4 8.4
2017-Nov-10 23:00N 48°46' W 004°44'4 9.2
2017-Nov-10 22:31N 48°47' W 004°38'3 6.6
2017-Nov-10 22:00N 48°48' W 004°33'4 7.7
2017-Nov-10 21:31N 48°49' W 004°27'4 7.5
2017-Nov-10 21:00N 48°50' W 004°22'4 7.4
2017-Nov-10 20:31N 48°51' W 004°16'4 7.3
2017-Nov-10 20:00N 48°53' W 004°11'3 7.0
2017-Nov-10 19:30N 48°54' W 004°06'4 7.1
2017-Nov-10 19:00N 48°55' W 004°01'  
Track history (hours):
 
Tides and Currents Weather Stations Pressure Air Temp Water Temp Dewpoint Dewpoint Depression Visibility Wind Speed Wind Dir Waves Ship Positions

Sunmi

Last reported at 2017-Nov-20 00:30 UTC. Time now 2017-Nov-22 09:19 UTC.
Position N 52°46' E 001°42'.

Length 90 m; draft 3.9 m.

Type: Ship. MMSI: 309937000.

Date/timePositionNaut miles runAvg speedWind from/ knotsBaromVisibWave heightAir tempDewpointWater temp
2017-Nov-20 00:30N 52°46' E 001°42'612.1
2017-Nov-20 00:00N 52°41' E 001°48'510.6
2017-Nov-19 23:30N 52°37' E 001°53'510.2
2017-Nov-19 23:00N 52°31' E 001°52'5 9.5
2017-Nov-19 22:30N 52°27' E 001°52'5 9.2
2017-Nov-19 22:01N 52°22' E 001°51'11 9.0
2017-Nov-19 20:50N 52°12' E 001°50'3 8.5
2017-Nov-19 20:30N 52°09' E 001°50'4 8.3
2017-Nov-19 20:00N 52°05' E 001°49'4 8.4
2017-Nov-19 19:30N 52°01' E 001°49'5 9.4
2017-Nov-19 19:00N 51°56' E 001°48'510.1
2017-Nov-19 18:31N 51°51' E 001°48'510.5
2017-Nov-19 18:00N 51°46' E 001°48'510.8
2017-Nov-19 17:30N 51°40' E 001°48'510.6
2017-Nov-19 17:01N 51°36' E 001°44'611.4
2017-Nov-19 16:30N 51°31' E 001°39'510.7
2017-Nov-19 16:00N 51°27' E 001°33'4 7.6
2017-Nov-19 15:30N 51°27' E 001°27'713.0
2017-Nov-19 15:00N 51°29' E 001°16'613.1
2017-Nov-19 14:31N 51°29' E 001°06'612.3
2017-Nov-19 14:00N 51°29' E 000°56'611.7
2017-Nov-19 13:30N 51°29' E 000°47'511.0
2017-Nov-19 13:00N 51°30' E 000°38'510.0
2017-Nov-19 12:30N 51°30' E 000°30'5 9.0
2017-Nov-19 12:00N 51°27' E 000°24'3 0.3
2017-Nov-19 01:30N 51°27' E 000°20'0 0.0
2017-Nov-19 01:00N 51°27' E 000°20'0 0.0
2017-Nov-19 00:30N 51°27' E 000°20'0 0.0
2017-Nov-19 00:00N 51°27' E 000°20'0 0.0
2017-Nov-18 23:31N 51°27' E 000°20'0 0.0
2017-Nov-18 23:01N 51°27' E 000°20'0 0.0
2017-Nov-18 22:30N 51°27' E 000°20'0 0.0
2017-Nov-18 22:00N 51°27' E 000°20'0 0.0
2017-Nov-18 21:30N 51°27' E 000°20'0 0.0
2017-Nov-18 21:01N 51°27' E 000°20'0 0.0
2017-Nov-18 20:30N 51°27' E 000°20'0 0.0
2017-Nov-18 20:00N 51°27' E 000°20'0 0.0
2017-Nov-18 19:30N 51°27' E 000°20'0 0.0
2017-Nov-18 19:00N 51°27' E 000°20'0 0.0
2017-Nov-18 18:30N 51°27' E 000°20'0 0.0
2017-Nov-18 18:00N 51°27' E 000°20'0 0.0
2017-Nov-18 17:30N 51°27' E 000°20'0 0.0
2017-Nov-18 17:00N 51°27' E 000°20'0 0.0
2017-Nov-18 16:30N 51°27' E 000°20'0 0.0
2017-Nov-18 16:00N 51°27' E 000°20'0 0.0
2017-Nov-18 15:31N 51°27' E 000°20'0 0.0
2017-Nov-18 15:00N 51°27' E 000°20'0 0.0
2017-Nov-18 14:30N 51°27' E 000°20'0 0.0
2017-Nov-18 14:00N 51°27' E 000°20'0 0.0
2017-Nov-18 13:01N 51°27' E 000°20'0 0.0
2017-Nov-18 13:00N 51°27' E 000°20'0 0.0
2017-Nov-18 12:30N 51°27' E 000°20'0 0.0
2017-Nov-18 12:01N 51°27' E 000°20'0 0.0
2017-Nov-18 11:31N 51°27' E 000°20'0 0.0
2017-Nov-18 11:00N 51°27' E 000°20'0 0.0
2017-Nov-18 10:30N 51°27' E 000°20'0 0.0
2017-Nov-18 10:00N 51°27' E 000°20'0 0.0
2017-Nov-18 09:30N 51°27' E 000°20'0 0.0
2017-Nov-18 09:01N 51°27' E 000°20'0 0.0
2017-Nov-18 08:30N 51°27' E 000°20'0 0.0
2017-Nov-18 08:01N 51°27' E 000°20'0 0.0
2017-Nov-18 07:31N 51°27' E 000°20'0 0.0
2017-Nov-18 07:00N 51°27' E 000°20'0 0.0
2017-Nov-18 06:30N 51°27' E 000°20'0 0.0
2017-Nov-18 06:00N 51°27' E 000°20'0 0.0
2017-Nov-18 05:30N 51°27' E 000°20'0 0.0
2017-Nov-18 05:00N 51°27' E 000°20'0 0.0
2017-Nov-18 04:30N 51°27' E 000°20'0 0.0
2017-Nov-18 04:00N 51°27' E 000°20'0 0.0
2017-Nov-18 03:30N 51°27' E 000°20'0 0.0
2017-Nov-18 03:00N 51°27' E 000°20'0 0.0
2017-Nov-18 02:30N 51°27' E 000°20'0 0.0
2017-Nov-18 02:01N 51°27' E 000°20'0 0.0
2017-Nov-18 01:31N 51°27' E 000°20'0 0.0
2017-Nov-18 01:00N 51°27' E 000°20'0 0.0
2017-Nov-18 00:31N 51°27' E 000°20'0 0.0
2017-Nov-18 00:00N 51°27' E 000°20'0 0.0
2017-Nov-17 23:31N 51°27' E 000°20'0 0.0
2017-Nov-17 23:01N 51°27' E 000°20'0 0.0
2017-Nov-17 22:30N 51°27' E 000°20'0 0.0
2017-Nov-17 22:00N 51°27' E 000°20'0 0.0
2017-Nov-17 21:30N 51°27' E 000°20'0 0.0
2017-Nov-17 21:00N 51°27' E 000°20'0 0.0
2017-Nov-17 20:30N 51°27' E 000°20'0 0.0
2017-Nov-17 20:00N 51°27' E 000°20'0 0.0
2017-Nov-17 19:30N 51°27' E 000°20'0 0.0
2017-Nov-17 19:00N 51°27' E 000°20'0 0.0
2017-Nov-17 18:30N 51°27' E 000°20'0 0.0
2017-Nov-17 18:00N 51°27' E 000°20'0 0.0
2017-Nov-17 17:31N 51°27' E 000°20'0 0.0
2017-Nov-17 17:00N 51°27' E 000°20'0 0.0
2017-Nov-17 16:30N 51°27' E 000°20'0 0.0
2017-Nov-17 16:01N 51°27' E 000°20'0 0.0
2017-Nov-17 15:30N 51°27' E 000°20'0 0.0
2017-Nov-17 15:00N 51°27' E 000°20'0 0.0
2017-Nov-17 14:30N 51°27' E 000°20'0 0.0
2017-Nov-17 13:52N 51°27' E 000°20'0 0.0
2017-Nov-17 13:31N 51°27' E 000°20'0 0.0
2017-Nov-17 13:01N 51°27' E 000°20'0 0.0
2017-Nov-17 12:31N 51°27' E 000°20'0 0.0
2017-Nov-17 12:00N 51°27' E 000°20'0 0.0
2017-Nov-17 11:31N 51°27' E 000°20'0 0.0
2017-Nov-17 11:01N 51°27' E 000°20'0 0.1
2017-Nov-17 10:30N 51°27' E 000°20'1 1.0
2017-Nov-17 10:01N 51°27' E 000°20'4 7.3
2017-Nov-17 09:31N 51°27' E 000°26'510.4
2017-Nov-17 09:01N 51°30' E 000°32'611.4
2017-Nov-17 08:30N 51°30' E 000°41'611.7
2017-Nov-17 07:59N 51°30' E 000°51'511.1
2017-Nov-17 07:30N 51°30' E 000°60'510.8
2017-Nov-17 07:00N 51°29' E 001°09'611.0
2017-Nov-17 06:30N 51°29' E 001°17'510.0
2017-Nov-17 06:01N 51°28' E 001°25'4 7.7
2017-Nov-17 05:30N 51°25' E 001°29'3 6.8
2017-Nov-17 05:01N 51°23' E 001°33'3 6.8
2017-Nov-17 04:31N 51°20' E 001°36'3 6.5
2017-Nov-17 04:00N 51°17' E 001°38'3 6.5
2017-Nov-17 03:30N 51°14' E 001°40'3 6.7
2017-Nov-17 03:00N 51°11' E 001°42'3 6.0
2017-Nov-17 02:30N 51°08' E 001°41'3 7.0
2017-Nov-17 02:01N 51°05' E 001°38'3 6.8
2017-Nov-17 01:30N 51°02' E 001°36'3 6.9
2017-Nov-17 01:00N 50°59' E 001°33'3 6.9
2017-Nov-17 00:30N 50°56' E 001°30'4 7.1
2017-Nov-16 23:58N 50°53' E 001°27'5810.4
2017-Nov-16 18:27N 50°22' E 000°10'512.2
2017-Nov-16 18:00N 50°21' E 000°02'611.8
2017-Nov-16 17:30N 50°19' W 000°07'611.5
2017-Nov-16 17:00N 50°17' W 000°16'45 9.0
2017-Nov-16 12:00N 50°05' W 001°23'4 7.8
2017-Nov-16 11:30N 50°03' W 001°29'4 8.2
2017-Nov-16 11:00N 50°02' W 001°35'4 8.8
2017-Nov-16 10:31N 50°01' W 001°41'5 9.5
2017-Nov-16 10:00N 49°60' W 001°48'510.3
2017-Nov-16 09:31N 49°58' W 001°56'611.0
2017-Nov-16 09:00N 49°56' W 002°04'611.8
2017-Nov-16 08:30N 49°55' W 002°13'612.1
2017-Nov-16 08:00N 49°53' W 002°22'612.3
2017-Nov-16 07:30N 49°52' W 002°31'1012.3
2017-Nov-16 06:41N 49°49' W 002°47'712.1
2017-Nov-16 06:06N 49°46' W 002°56'112.0
2017-Nov-16 05:59N 49°46' W 002°58'712.2
2017-Nov-16 05:27N 49°42' W 003°07'712.2
2017-Nov-16 04:54N 49°38' W 003°15'612.1
2017-Nov-16 04:26N 49°35' W 003°22'512.0
2017-Nov-16 04:01N 49°33' W 003°29'2611.8
2017-Nov-16 01:48N 49°19' W 004°04'1511.2
2017-Nov-16 00:27N 49°12' W 004°24'710.4
2017-Nov-15 23:44N 49°09' W 004°34'310.7
2017-Nov-15 23:29N 49°08' W 004°38'910.3
2017-Nov-15 22:36N 49°03' W 004°50'2 9.8
2017-Nov-15 22:26N 49°02' W 004°52'5 9.7
2017-Nov-15 21:56N 48°60' W 004°58'4 9.5
2017-Nov-15 21:28N 48°57' W 005°04'6 9.1
2017-Nov-15 20:47N 48°54' W 005°13'5 8.9
2017-Nov-15 20:13N 48°52' W 005°19'2 8.9
2017-Nov-15 19:57N 48°51' W 005°22'4 8.9
2017-Nov-15 19:30N 48°49' W 005°28'5 8.9
2017-Nov-15 18:55N 48°46' W 005°34'4 8.9
2017-Nov-15 18:30N 48°43' W 005°38'5 9.4
2017-Nov-15 18:00N 48°39' W 005°41'17 9.1
2017-Nov-15 16:09N 48°22' W 005°37'2 9.7
2017-Nov-15 15:58N 48°21' W 005°36'510.1
2017-Nov-15 15:31N 48°16' W 005°34'610.3
2017-Nov-15 14:58N 48°11' W 005°31'510.4
2017-Nov-15 14:30N 48°06' W 005°29'510.5
2017-Nov-15 14:00N 48°01' W 005°27'510.6
2017-Nov-15 13:30N 47°57' W 005°23'611.0
2017-Nov-15 12:56N 47°51' W 005°20'510.7
2017-Nov-15 12:30N 47°46' W 005°17'610.9
2017-Nov-15 11:56N 47°40' W 005°14'510.7
2017-Nov-15 11:30N 47°36' W 005°12'610.9
2017-Nov-15 10:57N 47°31' W 005°09'4910.8
2017-Nov-15 06:25N 46°44' W 004°45'17810.4
2017-Nov-14 13:15N 43°57' W 003°21'310.6
2017-Nov-14 13:00N 43°54' W 003°20'510.5
2017-Nov-14 12:30N 43°49' W 003°18'510.4
2017-Nov-14 12:00N 43°44' W 003°15'510.4
2017-Nov-14 11:30N 43°39' W 003°13'510.4
2017-Nov-14 11:00N 43°34' W 003°11'510.4
2017-Nov-14 10:30N 43°30' W 003°08'510.3
2017-Nov-14 10:00N 43°25' W 003°06'4 8.1
2017-Nov-14 09:30N 43°21' W 003°02'1 2.5
2017-Nov-14 09:00N 43°20' W 003°02'0 0.0
2017-Nov-14 08:30N 43°20' W 003°02'0 0.0
2017-Nov-14 08:00N 43°20' W 003°02'0 0.0
2017-Nov-14 07:30N 43°20' W 003°02'0 0.0
2017-Nov-14 07:00N 43°20' W 003°02'0 0.0
2017-Nov-14 06:30N 43°20' W 003°02'0 0.0
2017-Nov-14 06:00N 43°20' W 003°02'0 0.0
2017-Nov-14 05:30N 43°20' W 003°02'0 0.0
2017-Nov-14 05:00N 43°20' W 003°02'0 0.0
2017-Nov-14 04:30N 43°20' W 003°02'0 0.0
2017-Nov-14 04:00N 43°20' W 003°02'0 0.0
2017-Nov-14 03:30N 43°20' W 003°02'0 0.0
2017-Nov-14 03:00N 43°20' W 003°02'0 0.0
2017-Nov-14 02:30N 43°20' W 003°02'0 0.0
2017-Nov-14 02:00N 43°20' W 003°02'0 0.0
2017-Nov-14 01:30N 43°20' W 003°02'0 0.0
2017-Nov-14 01:00N 43°20' W 003°02'0 0.0
2017-Nov-14 00:30N 43°20' W 003°02'0 0.0
2017-Nov-14 00:00N 43°20' W 003°02'0 0.0
2017-Nov-13 23:30N 43°20' W 003°02'0 0.0
2017-Nov-13 23:00N 43°20' W 003°02'0 0.0
2017-Nov-13 22:30N 43°20' W 003°02'0 0.0
2017-Nov-13 22:00N 43°20' W 003°02'0 0.0
2017-Nov-13 02:00N 43°20' W 003°02'0 0.0
2017-Nov-13 01:30N 43°20' W 003°02'0 0.0
2017-Nov-13 01:00N 43°20' W 003°02'0 0.0
2017-Nov-13 00:30N 43°20' W 003°02'0 0.0
2017-Nov-13 00:00N 43°20' W 003°02'0 0.0
2017-Nov-12 23:30N 43°20' W 003°02'0 0.0
2017-Nov-12 23:00N 43°20' W 003°02'0 0.0
2017-Nov-12 22:30N 43°20' W 003°02'0 0.0
2017-Nov-12 22:00N 43°20' W 003°02'0 0.0
2017-Nov-12 21:30N 43°20' W 003°02'0 0.0
2017-Nov-12 21:00N 43°20' W 003°02'0 0.0
2017-Nov-12 20:27N 43°20' W 003°02'0 0.0
2017-Nov-12 20:00N 43°20' W 003°02'0 0.0
2017-Nov-12 19:30N 43°20' W 003°02'0 0.0
2017-Nov-12 19:00N 43°20' W 003°02'0 0.0
2017-Nov-12 18:30N 43°20' W 003°02'0 0.0
2017-Nov-12 18:00N 43°20' W 003°02'0 0.0
2017-Nov-12 17:30N 43°20' W 003°02'0 0.0
2017-Nov-12 17:00N 43°20' W 003°02'0 0.0
2017-Nov-12 16:30N 43°20' W 003°02'0 0.0
2017-Nov-12 16:00N 43°20' W 003°02'0 0.0
2017-Nov-12 15:30N 43°20' W 003°02'0 0.0
2017-Nov-12 15:00N 43°20' W 003°02'0 0.0
2017-Nov-12 14:30N 43°20' W 003°02'0 0.0
2017-Nov-12 14:00N 43°20' W 003°02'0 0.0
2017-Nov-12 13:30N 43°20' W 003°02'0 0.0
2017-Nov-12 13:00N 43°20' W 003°02'0 0.0
2017-Nov-12 12:30N 43°20' W 003°02'0 0.0
2017-Nov-12 12:00N 43°20' W 003°02'0 0.2
2017-Nov-12 11:31N 43°20' W 003°02'3 7.0
2017-Nov-12 11:01N 43°23' W 003°05'510.6
2017-Nov-12 10:31N 43°28' W 003°08'510.6
2017-Nov-12 10:01N 43°33' W 003°10'510.4
2017-Nov-12 09:31N 43°38' W 003°12'510.2
2017-Nov-12 09:01N 43°43' W 003°14'510.4
2017-Nov-12 08:31N 43°48' W 003°16'510.6
2017-Nov-12 08:01N 43°53' W 003°19'510.8
2017-Nov-12 07:31N 43°58' W 003°21'510.8
2017-Nov-12 07:01N 44°03' W 003°23'17711.0
2017-Nov-11 14:52N 46°50' W 004°48'1 3.2
2017-Nov-11 14:30N 46°49' W 004°46'2 3.3
2017-Nov-11 13:47N 46°48' W 004°43'1 3.2
2017-Nov-11 13:30N 46°48' W 004°42'2 3.5
2017-Nov-11 13:00N 46°47' W 004°40'3 3.8
2017-Nov-11 12:16N 46°50' W 004°39'411.2
2017-Nov-11 11:54N 46°54' W 004°41'3711.1
2017-Nov-11 08:35N 47°29' W 004°56'211.4
2017-Nov-11 08:26N 47°31' W 004°57'510.7
2017-Nov-11 08:01N 47°35' W 004°59'510.8
2017-Nov-11 07:30N 47°40' W 005°02'510.6
2017-Nov-11 07:01N 47°45' W 005°04'510.4
2017-Nov-11 06:30N 47°50' W 005°06'510.1
2017-Nov-11 06:00N 47°55' W 005°09'510.3
2017-Nov-11 05:31N 48°00' W 005°11'510.5
2017-Nov-11 05:00N 48°05' W 005°13'510.7
2017-Nov-11 04:30N 48°10' W 005°15'611.1
2017-Nov-11 04:00N 48°16' W 005°18'611.0
2017-Nov-11 03:30N 48°21' W 005°21'611.3
2017-Nov-11 03:00N 48°26' W 005°23'510.1
2017-Nov-11 02:31N 48°31' W 005°24'5 9.7
2017-Nov-11 02:00N 48°35' W 005°20'5 9.3
2017-Nov-11 01:30N 48°38' W 005°15'4 8.5
2017-Nov-11 01:00N 48°40' W 005°09'4 8.8
2017-Nov-11 00:31N 48°41' W 005°02'4 8.6
2017-Nov-11 00:00N 48°43' W 004°56'4 8.6
2017-Nov-10 23:31N 48°44' W 004°50'4 8.4
2017-Nov-10 23:00N 48°46' W 004°44'4 9.2
2017-Nov-10 22:31N 48°47' W 004°38'3 6.6
2017-Nov-10 22:00N 48°48' W 004°33'4 7.7
2017-Nov-10 21:31N 48°49' W 004°27'4 7.5
2017-Nov-10 21:00N 48°50' W 004°22'4 7.4
2017-Nov-10 20:31N 48°51' W 004°16'4 7.3
2017-Nov-10 20:00N 48°53' W 004°11'3 7.0
2017-Nov-10 19:30N 48°54' W 004°06'4 7.1
2017-Nov-10 19:00N 48°55' W 004°01'  

Dump ship's entire track history